sensor_id;sensor_type;location;lat;lon;timestamp;temperature;humidity
51567;DHT22;37657;53.182;5.638;2023-06-22T00:01:04;17.40;99.90
51567;DHT22;37657;53.182;5.638;2023-06-22T00:03:30;17.40;99.90
51567;DHT22;37657;53.182;5.638;2023-06-22T00:05:56;17.30;99.90
51567;DHT22;37657;53.182;5.638;2023-06-22T00:08:22;17.20;99.90
51567;DHT22;37657;53.182;5.638;2023-06-22T00:10:47;17.20;99.90
51567;DHT22;37657;53.182;5.638;2023-06-22T00:13:13;17.10;99.90
51567;DHT22;37657;53.182;5.638;2023-06-22T00:15:40;17.00;99.90
51567;DHT22;37657;53.182;5.638;2023-06-22T00:18:07;16.90;99.90
51567;DHT22;37657;53.182;5.638;2023-06-22T00:20:33;16.90;99.90
51567;DHT22;37657;53.182;5.638;2023-06-22T00:23:02;16.70;99.90
51567;DHT22;37657;53.182;5.638;2023-06-22T00:25:31;16.70;99.90
51567;DHT22;37657;53.182;5.638;2023-06-22T00:27:57;16.60;99.90
51567;DHT22;37657;53.182;5.638;2023-06-22T00:30:22;16.30;99.90
51567;DHT22;37657;53.182;5.638;2023-06-22T00:32:48;16.30;99.90
51567;DHT22;37657;53.182;5.638;2023-06-22T00:35:14;16.50;99.90
51567;DHT22;37657;53.182;5.638;2023-06-22T00:37:40;16.50;99.90
51567;DHT22;37657;53.182;5.638;2023-06-22T00:40:08;16.50;99.90
51567;DHT22;37657;53.182;5.638;2023-06-22T00:42:37;16.60;99.90
51567;DHT22;37657;53.182;5.638;2023-06-22T00:45:02;16.60;99.90
51567;DHT22;37657;53.182;5.638;2023-06-22T00:47:28;16.60;99.90
51567;DHT22;37657;53.182;5.638;2023-06-22T00:49:54;16.40;99.90
51567;DHT22;37657;53.182;5.638;2023-06-22T00:52:21;16.50;99.90
51567;DHT22;37657;53.182;5.638;2023-06-22T00:54:52;16.50;99.90
51567;DHT22;37657;53.182;5.638;2023-06-22T00:57:19;16.50;99.90
51567;DHT22;37657;53.182;5.638;2023-06-22T00:59:46;16.40;99.90
51567;DHT22;37657;53.182;5.638;2023-06-22T01:02:13;16.20;99.90
51567;DHT22;37657;53.182;5.638;2023-06-22T01:04:39;16.20;99.90
51567;DHT22;37657;53.182;5.638;2023-06-22T01:07:35;16.10;99.90
51567;DHT22;37657;53.182;5.638;2023-06-22T01:12:47;16.00;99.90
51567;DHT22;37657;53.182;5.638;2023-06-22T01:15:18;15.80;99.90
51567;DHT22;37657;53.182;5.638;2023-06-22T01:17:48;15.80;99.90
51567;DHT22;37657;53.182;5.638;2023-06-22T01:20:15;15.90;99.90
51567;DHT22;37657;53.182;5.638;2023-06-22T01:23:26;15.80;99.90
51567;DHT22;37657;53.182;5.638;2023-06-22T01:29:04;15.80;99.90
51567;DHT22;37657;53.182;5.638;2023-06-22T01:31:31;15.80;99.90
51567;DHT22;37657;53.182;5.638;2023-06-22T01:34:04;15.90;99.90
51567;DHT22;37657;53.182;5.638;2023-06-22T01:36:31;15.80;99.90
51567;DHT22;37657;53.182;5.638;2023-06-22T01:38:58;15.90;99.90
51567;DHT22;37657;53.182;5.638;2023-06-22T01:41:28;15.90;99.90
51567;DHT22;37657;53.182;5.638;2023-06-22T01:43:55;16.00;99.90
51567;DHT22;37657;53.182;5.638;2023-06-22T01:46:22;15.90;99.90
51567;DHT22;37657;53.182;5.638;2023-06-22T01:48:48;15.90;99.90
51567;DHT22;37657;53.182;5.638;2023-06-22T01:51:14;15.90;99.90
51567;DHT22;37657;53.182;5.638;2023-06-22T01:53:40;16.00;99.90
51567;DHT22;37657;53.182;5.638;2023-06-22T01:56:06;16.00;99.90
51567;DHT22;37657;53.182;5.638;2023-06-22T01:58:32;16.10;99.90
51567;DHT22;37657;53.182;5.638;2023-06-22T02:01:10;15.90;99.90
51567;DHT22;37657;53.182;5.638;2023-06-22T02:03:46;16.10;99.90
51567;DHT22;37657;53.182;5.638;2023-06-22T02:06:31;16.00;99.90
51567;DHT22;37657;53.182;5.638;2023-06-22T02:09:04;16.00;99.90
51567;DHT22;37657;53.182;5.638;2023-06-22T02:11:31;16.00;99.90
51567;DHT22;37657;53.182;5.638;2023-06-22T02:13:57;16.20;99.90
51567;DHT22;37657;53.182;5.638;2023-06-22T02:16:23;16.00;99.90
51567;DHT22;37657;53.182;5.638;2023-06-22T02:18:49;16.20;99.90
51567;DHT22;37657;53.182;5.638;2023-06-22T02:21:20;16.10;99.90
51567;DHT22;37657;53.182;5.638;2023-06-22T02:23:45;16.10;99.90
51567;DHT22;37657;53.182;5.638;2023-06-22T02:26:12;16.10;99.90
51567;DHT22;37657;53.182;5.638;2023-06-22T02:28:37;15.80;99.90
51567;DHT22;37657;53.182;5.638;2023-06-22T02:31:03;15.90;99.90
51567;DHT22;37657;53.182;5.638;2023-06-22T02:33:29;15.80;99.90
51567;DHT22;37657;53.182;5.638;2023-06-22T02:35:54;15.90;99.90
51567;DHT22;37657;53.182;5.638;2023-06-22T02:38:20;15.90;99.90
51567;DHT22;37657;53.182;5.638;2023-06-22T02:40:46;15.70;99.90
51567;DHT22;37657;53.182;5.638;2023-06-22T02:43:12;15.80;99.90
51567;DHT22;37657;53.182;5.638;2023-06-22T02:45:38;15.70;99.90
51567;DHT22;37657;53.182;5.638;2023-06-22T02:48:04;16.00;99.90
51567;DHT22;37657;53.182;5.638;2023-06-22T02:50:30;15.80;99.90
51567;DHT22;37657;53.182;5.638;2023-06-22T02:52:55;15.80;99.90
51567;DHT22;37657;53.182;5.638;2023-06-22T02:55:21;15.90;99.90
51567;DHT22;37657;53.182;5.638;2023-06-22T02:57:46;16.10;99.90
51567;DHT22;37657;53.182;5.638;2023-06-22T03:00:14;15.80;99.90
51567;DHT22;37657;53.182;5.638;2023-06-22T03:02:44;15.80;99.90
51567;DHT22;37657;53.182;5.638;2023-06-22T03:05:10;15.90;99.90
51567;DHT22;37657;53.182;5.638;2023-06-22T03:07:41;15.90;99.90
51567;DHT22;37657;53.182;5.638;2023-06-22T03:10:09;15.90;99.90
51567;DHT22;37657;53.182;5.638;2023-06-22T03:12:35;15.90;99.90
51567;DHT22;37657;53.182;5.638;2023-06-22T03:15:00;16.20;99.90
51567;DHT22;37657;53.182;5.638;2023-06-22T03:17:26;16.10;99.90
51567;DHT22;37657;53.182;5.638;2023-06-22T03:19:51;16.20;99.90
51567;DHT22;37657;53.182;5.638;2023-06-22T03:22:17;16.10;99.90
51567;DHT22;37657;53.182;5.638;2023-06-22T03:24:42;16.00;99.90
51567;DHT22;37657;53.182;5.638;2023-06-22T03:27:08;16.30;99.90
51567;DHT22;37657;53.182;5.638;2023-06-22T03:29:34;16.50;99.90
51567;DHT22;37657;53.182;5.638;2023-06-22T03:31:59;16.50;99.90
51567;DHT22;37657;53.182;5.638;2023-06-22T03:34:25;16.20;99.90
51567;DHT22;37657;53.182;5.638;2023-06-22T03:36:50;16.40;99.90
51567;DHT22;37657;53.182;5.638;2023-06-22T03:39:16;16.30;99.90
51567;DHT22;37657;53.182;5.638;2023-06-22T03:41:42;16.60;99.90
51567;DHT22;37657;53.182;5.638;2023-06-22T03:44:07;16.30;99.90
51567;DHT22;37657;53.182;5.638;2023-06-22T03:46:35;16.60;99.90
51567;DHT22;37657;53.182;5.638;2023-06-22T03:49:01;16.60;99.90
51567;DHT22;37657;53.182;5.638;2023-06-22T03:51:28;16.40;99.90
51567;DHT22;37657;53.182;5.638;2023-06-22T03:53:54;16.40;99.90
51567;DHT22;37657;53.182;5.638;2023-06-22T03:56:19;16.40;99.90
51567;DHT22;37657;53.182;5.638;2023-06-22T03:58:46;16.40;99.90
51567;DHT22;37657;53.182;5.638;2023-06-22T04:01:12;16.70;99.90
51567;DHT22;37657;53.182;5.638;2023-06-22T04:03:38;16.60;99.90
51567;DHT22;37657;53.182;5.638;2023-06-22T04:06:03;16.30;99.90
51567;DHT22;37657;53.182;5.638;2023-06-22T04:08:29;16.60;99.90
51567;DHT22;37657;53.182;5.638;2023-06-22T04:10:55;16.60;99.90
51567;DHT22;37657;53.182;5.638;2023-06-22T04:13:21;16.60;99.90
51567;DHT22;37657;53.182;5.638;2023-06-22T04:15:47;16.60;99.90
51567;DHT22;37657;53.182;5.638;2023-06-22T04:18:12;16.60;99.90
51567;DHT22;37657;53.182;5.638;2023-06-22T04:20:39;16.20;99.90
51567;DHT22;37657;53.182;5.638;2023-06-22T04:23:04;16.70;99.90
51567;DHT22;37657;53.182;5.638;2023-06-22T04:25:30;16.70;99.90
51567;DHT22;37657;53.182;5.638;2023-06-22T04:27:56;16.80;99.90
51567;DHT22;37657;53.182;5.638;2023-06-22T04:30:21;16.80;99.90
51567;DHT22;37657;53.182;5.638;2023-06-22T04:32:47;16.90;99.90
51567;DHT22;37657;53.182;5.638;2023-06-22T04:35:21;16.90;99.90
51567;DHT22;37657;53.182;5.638;2023-06-22T04:37:48;16.90;99.90
51567;DHT22;37657;53.182;5.638;2023-06-22T04:40:15;16.50;99.90
51567;DHT22;37657;53.182;5.638;2023-06-22T04:42:40;16.90;99.90
51567;DHT22;37657;53.182;5.638;2023-06-22T04:45:17;16.60;99.90
51567;DHT22;37657;53.182;5.638;2023-06-22T04:47:43;17.10;99.90
51567;DHT22;37657;53.182;5.638;2023-06-22T04:50:14;16.70;99.90
51567;DHT22;37657;53.182;5.638;2023-06-22T04:52:39;16.90;99.90
51567;DHT22;37657;53.182;5.638;2023-06-22T04:55:06;17.00;99.90
51567;DHT22;37657;53.182;5.638;2023-06-22T04:57:31;17.20;99.90
51567;DHT22;37657;53.182;5.638;2023-06-22T05:00:00;17.10;99.90
51567;DHT22;37657;53.182;5.638;2023-06-22T05:02:38;17.30;99.90
51567;DHT22;37657;53.182;5.638;2023-06-22T05:05:04;17.40;99.90
51567;DHT22;37657;53.182;5.638;2023-06-22T05:07:33;17.00;99.90
51567;DHT22;37657;53.182;5.638;2023-06-22T05:09:59;17.30;99.90
51567;DHT22;37657;53.182;5.638;2023-06-22T05:12:24;17.40;99.90
51567;DHT22;37657;53.182;5.638;2023-06-22T05:14:50;17.50;99.90
51567;DHT22;37657;53.182;5.638;2023-06-22T05:17:15;17.40;99.90
51567;DHT22;37657;53.182;5.638;2023-06-22T05:19:44;17.40;99.90
51567;DHT22;37657;53.182;5.638;2023-06-22T05:22:16;17.10;99.90
51567;DHT22;37657;53.182;5.638;2023-06-22T05:24:42;17.20;99.90
51567;DHT22;37657;53.182;5.638;2023-06-22T05:27:09;17.50;99.90
51567;DHT22;37657;53.182;5.638;2023-06-22T05:29:34;17.70;99.90
51567;DHT22;37657;53.182;5.638;2023-06-22T05:32:00;17.80;99.90
51567;DHT22;37657;53.182;5.638;2023-06-22T05:34:26;17.90;99.90
51567;DHT22;37657;53.182;5.638;2023-06-22T05:36:52;17.40;99.90
51567;DHT22;37657;53.182;5.638;2023-06-22T05:39:17;17.90;99.90
51567;DHT22;37657;53.182;5.638;2023-06-22T05:41:44;17.50;99.90
51567;DHT22;37657;53.182;5.638;2023-06-22T05:44:10;17.50;99.90
51567;DHT22;37657;53.182;5.638;2023-06-22T05:46:36;17.90;99.90
51567;DHT22;37657;53.182;5.638;2023-06-22T05:49:01;17.70;99.90
51567;DHT22;37657;53.182;5.638;2023-06-22T05:51:27;18.00;99.90
51567;DHT22;37657;53.182;5.638;2023-06-22T05:53:52;17.70;99.90
51567;DHT22;37657;53.182;5.638;2023-06-22T05:56:18;18.10;99.90
51567;DHT22;37657;53.182;5.638;2023-06-22T05:58:43;17.90;99.90
51567;DHT22;37657;53.182;5.638;2023-06-22T06:01:09;17.80;99.90
51567;DHT22;37657;53.182;5.638;2023-06-22T06:03:35;18.00;99.90
51567;DHT22;37657;53.182;5.638;2023-06-22T06:06:07;18.30;99.90
51567;DHT22;37657;53.182;5.638;2023-06-22T06:08:32;18.20;99.90
51567;DHT22;37657;53.182;5.638;2023-06-22T06:10:58;18.00;99.90
51567;DHT22;37657;53.182;5.638;2023-06-22T06:13:24;18.30;99.90
51567;DHT22;37657;53.182;5.638;2023-06-22T06:15:49;18.30;99.90
51567;DHT22;37657;53.182;5.638;2023-06-22T06:18:17;18.40;99.90
51567;DHT22;37657;53.182;5.638;2023-06-22T06:20:42;18.40;99.90
51567;DHT22;37657;53.182;5.638;2023-06-22T06:23:08;18.80;99.90
51567;DHT22;37657;53.182;5.638;2023-06-22T06:25:34;18.80;99.90
51567;DHT22;37657;53.182;5.638;2023-06-22T06:27:59;18.90;99.90
51567;DHT22;37657;53.182;5.638;2023-06-22T06:30:25;18.70;99.90
51567;DHT22;37657;53.182;5.638;2023-06-22T06:32:51;19.00;99.90
51567;DHT22;37657;53.182;5.638;2023-06-22T06:35:17;19.10;99.90
51567;DHT22;37657;53.182;5.638;2023-06-22T06:37:44;19.10;99.90
51567;DHT22;37657;53.182;5.638;2023-06-22T06:40:11;19.00;99.90
51567;DHT22;37657;53.182;5.638;2023-06-22T06:42:45;19.20;99.90
51567;DHT22;37657;53.182;5.638;2023-06-22T06:45:12;19.30;99.90
51567;DHT22;37657;53.182;5.638;2023-06-22T06:47:39;19.30;99.90
51567;DHT22;37657;53.182;5.638;2023-06-22T06:50:05;19.30;99.90
51567;DHT22;37657;53.182;5.638;2023-06-22T06:52:31;19.30;99.90
51567;DHT22;37657;53.182;5.638;2023-06-22T06:54:57;19.70;99.90
51567;DHT22;37657;53.182;5.638;2023-06-22T06:57:23;19.50;99.90
51567;DHT22;37657;53.182;5.638;2023-06-22T06:59:49;19.80;99.90
51567;DHT22;37657;53.182;5.638;2023-06-22T07:02:18;19.70;99.90
51567;DHT22;37657;53.182;5.638;2023-06-22T07:04:44;20.00;99.90
51567;DHT22;37657;53.182;5.638;2023-06-22T07:07:10;19.90;99.90
51567;DHT22;37657;53.182;5.638;2023-06-22T07:09:35;20.20;99.90
51567;DHT22;37657;53.182;5.638;2023-06-22T07:12:01;20.10;99.90
51567;DHT22;37657;53.182;5.638;2023-06-22T07:14:26;20.40;99.90
51567;DHT22;37657;53.182;5.638;2023-06-22T07:16:52;20.40;99.90
51567;DHT22;37657;53.182;5.638;2023-06-22T07:19:26;20.40;99.90
51567;DHT22;37657;53.182;5.638;2023-06-22T07:21:53;20.40;99.90
51567;DHT22;37657;53.182;5.638;2023-06-22T07:24:20;20.50;99.90
51567;DHT22;37657;53.182;5.638;2023-06-22T07:26:49;20.60;99.90
51567;DHT22;37657;53.182;5.638;2023-06-22T07:29:19;20.70;99.90
51567;DHT22;37657;53.182;5.638;2023-06-22T07:31:46;20.70;99.90
51567;DHT22;37657;53.182;5.638;2023-06-22T07:34:12;20.80;99.90
51567;DHT22;37657;53.182;5.638;2023-06-22T07:36:38;20.80;99.90
51567;DHT22;37657;53.182;5.638;2023-06-22T07:39:03;20.90;99.90
51567;DHT22;37657;53.182;5.638;2023-06-22T07:41:29;20.90;99.90
51567;DHT22;37657;53.182;5.638;2023-06-22T07:43:55;21.00;99.90
51567;DHT22;37657;53.182;5.638;2023-06-22T07:46:21;21.00;99.90
51567;DHT22;37657;53.182;5.638;2023-06-22T07:48:47;21.10;99.90
51567;DHT22;37657;53.182;5.638;2023-06-22T07:51:12;21.20;99.90
51567;DHT22;37657;53.182;5.638;2023-06-22T07:53:42;21.20;99.90
51567;DHT22;37657;53.182;5.638;2023-06-22T07:56:10;21.30;99.90
51567;DHT22;37657;53.182;5.638;2023-06-22T07:58:36;21.40;99.90
51567;DHT22;37657;53.182;5.638;2023-06-22T08:01:02;21.40;99.90
51567;DHT22;37657;53.182;5.638;2023-06-22T08:03:28;21.60;99.90
51567;DHT22;37657;53.182;5.638;2023-06-22T08:05:53;21.40;99.90
51567;DHT22;37657;53.182;5.638;2023-06-22T08:08:19;21.70;99.90
51567;DHT22;37657;53.182;5.638;2023-06-22T08:10:45;21.80;99.90
51567;DHT22;37657;53.182;5.638;2023-06-22T08:13:10;21.90;99.90
51567;DHT22;37657;53.182;5.638;2023-06-22T08:15:36;22.00;99.90
51567;DHT22;37657;53.182;5.638;2023-06-22T08:18:02;22.00;99.90
51567;DHT22;37657;53.182;5.638;2023-06-22T08:20:27;22.10;99.90
51567;DHT22;37657;53.182;5.638;2023-06-22T08:22:56;22.20;99.90
51567;DHT22;37657;53.182;5.638;2023-06-22T08:25:23;22.20;99.90
51567;DHT22;37657;53.182;5.638;2023-06-22T08:27:48;22.30;99.90
51567;DHT22;37657;53.182;5.638;2023-06-22T08:30:15;22.30;99.90
51567;DHT22;37657;53.182;5.638;2023-06-22T08:32:40;22.40;99.90
51567;DHT22;37657;53.182;5.638;2023-06-22T08:35:07;22.50;99.90
51567;DHT22;37657;53.182;5.638;2023-06-22T08:37:34;22.50;99.90
51567;DHT22;37657;53.182;5.638;2023-06-22T08:40:02;22.60;99.90
51567;DHT22;37657;53.182;5.638;2023-06-22T08:42:30;22.70;99.90
51567;DHT22;37657;53.182;5.638;2023-06-22T08:44:56;22.80;99.90
51567;DHT22;37657;53.182;5.638;2023-06-22T08:47:22;22.80;99.90
51567;DHT22;37657;53.182;5.638;2023-06-22T08:49:48;22.90;99.90
51567;DHT22;37657;53.182;5.638;2023-06-22T08:52:14;23.00;99.90
51567;DHT22;37657;53.182;5.638;2023-06-22T08:54:40;23.10;99.90
51567;DHT22;37657;53.182;5.638;2023-06-22T08:57:06;23.20;99.90
51567;DHT22;37657;53.182;5.638;2023-06-22T08:59:32;23.30;99.90
51567;DHT22;37657;53.182;5.638;2023-06-22T09:01:58;23.40;99.90
51567;DHT22;37657;53.182;5.638;2023-06-22T09:04:24;23.40;99.90
51567;DHT22;37657;53.182;5.638;2023-06-22T09:06:49;23.30;99.90
51567;DHT22;37657;53.182;5.638;2023-06-22T09:09:18;23.40;99.90
51567;DHT22;37657;53.182;5.638;2023-06-22T09:11:44;23.50;99.90
51567;DHT22;37657;53.182;5.638;2023-06-22T09:14:10;23.50;99.90
51567;DHT22;37657;53.182;5.638;2023-06-22T09:16:36;23.80;99.90
51567;DHT22;37657;53.182;5.638;2023-06-22T09:19:02;23.70;99.90
51567;DHT22;37657;53.182;5.638;2023-06-22T09:21:28;23.80;99.90
51567;DHT22;37657;53.182;5.638;2023-06-22T09:23:54;23.90;99.90
51567;DHT22;37657;53.182;5.638;2023-06-22T09:26:20;24.10;99.90
51567;DHT22;37657;53.182;5.638;2023-06-22T09:28:46;24.20;99.90
51567;DHT22;37657;53.182;5.638;2023-06-22T09:31:12;24.30;99.90
51567;DHT22;37657;53.182;5.638;2023-06-22T09:33:39;24.30;99.90
51567;DHT22;37657;53.182;5.638;2023-06-22T09:36:06;24.30;99.90
51567;DHT22;37657;53.182;5.638;2023-06-22T09:38:35;24.30;99.90
51567;DHT22;37657;53.182;5.638;2023-06-22T09:41:00;24.40;99.90
51567;DHT22;37657;53.182;5.638;2023-06-22T09:43:27;24.50;99.90
51567;DHT22;37657;53.182;5.638;2023-06-22T09:45:53;24.50;99.90
51567;DHT22;37657;53.182;5.638;2023-06-22T09:48:18;24.60;99.90
51567;DHT22;37657;53.182;5.638;2023-06-22T09:50:44;24.70;99.90
51567;DHT22;37657;53.182;5.638;2023-06-22T09:53:10;24.90;99.90
51567;DHT22;37657;53.182;5.638;2023-06-22T09:55:35;24.90;99.90
51567;DHT22;37657;53.182;5.638;2023-06-22T09:58:01;24.90;99.90
51567;DHT22;37657;53.182;5.638;2023-06-22T10:00:26;24.90;99.90
51567;DHT22;37657;53.182;5.638;2023-06-22T10:02:52;24.90;99.90
51567;DHT22;37657;53.182;5.638;2023-06-22T10:05:18;24.90;99.90
51567;DHT22;37657;53.182;5.638;2023-06-22T10:07:43;24.90;99.90
51567;DHT22;37657;53.182;5.638;2023-06-22T10:10:13;25.00;99.90
51567;DHT22;37657;53.182;5.638;2023-06-22T10:13:02;24.80;99.90
51567;DHT22;37657;53.182;5.638;2023-06-22T10:15:28;24.70;99.90
51567;DHT22;37657;53.182;5.638;2023-06-22T10:17:53;24.70;99.90
51567;DHT22;37657;53.182;5.638;2023-06-22T10:20:19;24.60;99.90
51567;DHT22;37657;53.182;5.638;2023-06-22T10:22:46;24.60;99.90
51567;DHT22;37657;53.182;5.638;2023-06-22T10:25:12;24.70;99.90
51567;DHT22;37657;53.182;5.638;2023-06-22T10:27:39;24.90;99.90
51567;DHT22;37657;53.182;5.638;2023-06-22T10:30:08;24.90;99.90
51567;DHT22;37657;53.182;5.638;2023-06-22T10:32:34;25.00;99.90
51567;DHT22;37657;53.182;5.638;2023-06-22T10:35:00;25.10;99.90
51567;DHT22;37657;53.182;5.638;2023-06-22T10:37:25;25.20;99.90
51567;DHT22;37657;53.182;5.638;2023-06-22T10:39:51;25.20;99.90
51567;DHT22;37657;53.182;5.638;2023-06-22T10:42:16;25.20;99.90
51567;DHT22;37657;53.182;5.638;2023-06-22T10:44:42;25.30;99.90
51567;DHT22;37657;53.182;5.638;2023-06-22T10:47:10;25.30;99.90
51567;DHT22;37657;53.182;5.638;2023-06-22T10:49:40;25.40;99.90
51567;DHT22;37657;53.182;5.638;2023-06-22T10:52:09;25.50;99.90
51567;DHT22;37657;53.182;5.638;2023-06-22T10:54:35;25.50;99.90
51567;DHT22;37657;53.182;5.638;2023-06-22T10:57:02;25.40;99.90
51567;DHT22;37657;53.182;5.638;2023-06-22T10:59:28;25.30;99.90
51567;DHT22;37657;53.182;5.638;2023-06-22T11:01:55;25.30;99.90
51567;DHT22;37657;53.182;5.638;2023-06-22T11:04:22;25.30;99.90
51567;DHT22;37657;53.182;5.638;2023-06-22T11:06:48;25.20;99.90
51567;DHT22;37657;53.182;5.638;2023-06-22T11:09:14;25.20;99.90
51567;DHT22;37657;53.182;5.638;2023-06-22T11:11:44;25.40;99.90
51567;DHT22;37657;53.182;5.638;2023-06-22T11:14:10;25.40;99.90
51567;DHT22;37657;53.182;5.638;2023-06-22T11:16:35;25.50;99.90
51567;DHT22;37657;53.182;5.638;2023-06-22T11:19:01;25.50;99.90
51567;DHT22;37657;53.182;5.638;2023-06-22T11:21:26;25.60;99.90
51567;DHT22;37657;53.182;5.638;2023-06-22T11:23:52;25.60;99.90
51567;DHT22;37657;53.182;5.638;2023-06-22T11:26:17;25.60;99.90
51567;DHT22;37657;53.182;5.638;2023-06-22T11:28:43;25.50;99.90
51567;DHT22;37657;53.182;5.638;2023-06-22T11:31:08;25.50;99.90
51567;DHT22;37657;53.182;5.638;2023-06-22T11:33:34;25.50;99.90
51567;DHT22;37657;53.182;5.638;2023-06-22T11:36:00;25.40;99.90
51567;DHT22;37657;53.182;5.638;2023-06-22T11:38:25;25.40;99.90
51567;DHT22;37657;53.182;5.638;2023-06-22T11:40:51;25.20;99.90
51567;DHT22;37657;53.182;5.638;2023-06-22T11:43:16;25.30;99.90
51567;DHT22;37657;53.182;5.638;2023-06-22T11:45:42;25.20;99.90
51567;DHT22;37657;53.182;5.638;2023-06-22T11:48:07;25.20;99.90
51567;DHT22;37657;53.182;5.638;2023-06-22T11:50:33;25.30;99.90
51567;DHT22;37657;53.182;5.638;2023-06-22T11:53:04;25.20;99.90
51567;DHT22;37657;53.182;5.638;2023-06-22T11:55:30;25.30;99.90
51567;DHT22;37657;53.182;5.638;2023-06-22T11:57:56;25.40;99.90
51567;DHT22;37657;53.182;5.638;2023-06-22T12:00:29;25.50;99.90
51567;DHT22;37657;53.182;5.638;2023-06-22T12:02:55;25.30;99.90
51567;DHT22;37657;53.182;5.638;2023-06-22T12:05:21;25.30;99.90
51567;DHT22;37657;53.182;5.638;2023-06-22T12:07:49;25.20;99.90
51567;DHT22;37657;53.182;5.638;2023-06-22T12:10:15;25.20;99.90
51567;DHT22;37657;53.182;5.638;2023-06-22T12:12:41;25.30;99.90
51567;DHT22;37657;53.182;5.638;2023-06-22T12:15:08;25.40;99.90
51567;DHT22;37657;53.182;5.638;2023-06-22T12:17:34;25.40;99.90
51567;DHT22;37657;53.182;5.638;2023-06-22T12:20:00;25.40;99.90
51567;DHT22;37657;53.182;5.638;2023-06-22T12:22:25;25.30;99.90
51567;DHT22;37657;53.182;5.638;2023-06-22T12:24:51;25.30;99.90
51567;DHT22;37657;53.182;5.638;2023-06-22T12:27:17;25.40;99.90
51567;DHT22;37657;53.182;5.638;2023-06-22T12:29:45;25.30;99.90
51567;DHT22;37657;53.182;5.638;2023-06-22T12:32:10;25.30;99.90
51567;DHT22;37657;53.182;5.638;2023-06-22T12:34:38;25.20;99.90
51567;DHT22;37657;53.182;5.638;2023-06-22T12:37:04;25.10;99.90
51567;DHT22;37657;53.182;5.638;2023-06-22T12:39:31;24.90;99.90
51567;DHT22;37657;53.182;5.638;2023-06-22T12:41:57;24.80;99.90
51567;DHT22;37657;53.182;5.638;2023-06-22T12:44:22;24.70;99.90
51567;DHT22;37657;53.182;5.638;2023-06-22T12:46:48;24.80;99.90
51567;DHT22;37657;53.182;5.638;2023-06-22T12:49:13;24.90;99.90
51567;DHT22;37657;53.182;5.638;2023-06-22T12:51:40;24.80;99.90
51567;DHT22;37657;53.182;5.638;2023-06-22T12:54:08;24.60;99.90
51567;DHT22;37657;53.182;5.638;2023-06-22T12:56:33;24.70;99.90
51567;DHT22;37657;53.182;5.638;2023-06-22T12:58:59;24.70;99.90
51567;DHT22;37657;53.182;5.638;2023-06-22T13:01:27;24.60;99.90
51567;DHT22;37657;53.182;5.638;2023-06-22T13:03:53;24.50;99.90
51567;DHT22;37657;53.182;5.638;2023-06-22T13:06:19;24.40;99.90
51567;DHT22;37657;53.182;5.638;2023-06-22T13:08:45;24.20;99.90
51567;DHT22;37657;53.182;5.638;2023-06-22T13:11:10;24.20;99.90
51567;DHT22;37657;53.182;5.638;2023-06-22T13:13:36;24.10;99.90
51567;DHT22;37657;53.182;5.638;2023-06-22T13:16:02;24.00;99.90
51567;DHT22;37657;53.182;5.638;2023-06-22T13:18:27;24.10;99.90
51567;DHT22;37657;53.182;5.638;2023-06-22T13:20:53;24.00;99.90
51567;DHT22;37657;53.182;5.638;2023-06-22T13:23:20;24.00;99.90
51567;DHT22;37657;53.182;5.638;2023-06-22T13:25:46;23.90;99.90
51567;DHT22;37657;53.182;5.638;2023-06-22T13:28:12;23.90;99.90
51567;DHT22;37657;53.182;5.638;2023-06-22T13:30:40;24.00;99.90
51567;DHT22;37657;53.182;5.638;2023-06-22T13:33:05;23.90;99.90
51567;DHT22;37657;53.182;5.638;2023-06-22T13:35:31;23.90;99.90
51567;DHT22;37657;53.182;5.638;2023-06-22T13:37:57;23.70;99.90
51567;DHT22;37657;53.182;5.638;2023-06-22T13:40:23;23.60;99.90
51567;DHT22;37657;53.182;5.638;2023-06-22T13:42:48;23.50;99.90
51567;DHT22;37657;53.182;5.638;2023-06-22T13:45:14;23.40;99.90
51567;DHT22;37657;53.182;5.638;2023-06-22T13:47:41;23.30;99.90
51567;DHT22;37657;53.182;5.638;2023-06-22T13:50:07;23.20;99.90
51567;DHT22;37657;53.182;5.638;2023-06-22T13:52:33;23.10;99.90
51567;DHT22;37657;53.182;5.638;2023-06-22T13:54:59;23.10;99.90
51567;DHT22;37657;53.182;5.638;2023-06-22T13:57:24;23.10;99.90
51567;DHT22;37657;53.182;5.638;2023-06-22T13:59:50;23.00;99.90
51567;DHT22;37657;53.182;5.638;2023-06-22T14:02:15;22.90;99.90
51567;DHT22;37657;53.182;5.638;2023-06-22T14:04:41;22.80;99.90
51567;DHT22;37657;53.182;5.638;2023-06-22T14:07:06;22.80;99.90
51567;DHT22;37657;53.182;5.638;2023-06-22T14:09:32;22.80;99.90
51567;DHT22;37657;53.182;5.638;2023-06-22T14:11:57;22.70;99.90
51567;DHT22;37657;53.182;5.638;2023-06-22T14:14:23;22.60;99.90
51567;DHT22;37657;53.182;5.638;2023-06-22T14:16:48;22.50;99.90
51567;DHT22;37657;53.182;5.638;2023-06-22T14:19:17;22.50;99.90
51567;DHT22;37657;53.182;5.638;2023-06-22T14:21:43;22.40;99.90
51567;DHT22;37657;53.182;5.638;2023-06-22T14:24:09;22.30;99.90
51567;DHT22;37657;53.182;5.638;2023-06-22T14:26:34;22.10;99.90
51567;DHT22;37657;53.182;5.638;2023-06-22T14:29:00;22.20;99.90
51567;DHT22;37657;53.182;5.638;2023-06-22T14:31:25;22.10;99.90
51567;DHT22;37657;53.182;5.638;2023-06-22T14:33:51;22.10;99.90
51567;DHT22;37657;53.182;5.638;2023-06-22T14:36:17;22.00;99.90
51567;DHT22;37657;53.182;5.638;2023-06-22T14:38:43;22.00;99.90
51567;DHT22;37657;53.182;5.638;2023-06-22T14:41:08;22.00;99.90
51567;DHT22;37657;53.182;5.638;2023-06-22T14:43:34;22.00;99.90
51567;DHT22;37657;53.182;5.638;2023-06-22T14:46:00;21.80;99.90
51567;DHT22;37657;53.182;5.638;2023-06-22T14:48:26;21.80;99.90
51567;DHT22;37657;53.182;5.638;2023-06-22T14:50:51;21.80;99.90
51567;DHT22;37657;53.182;5.638;2023-06-22T14:53:17;21.70;99.90
51567;DHT22;37657;53.182;5.638;2023-06-22T14:55:42;21.70;99.90
51567;DHT22;37657;53.182;5.638;2023-06-22T14:58:09;21.70;99.90
51567;DHT22;37657;53.182;5.638;2023-06-22T15:00:35;21.70;99.90
51567;DHT22;37657;53.182;5.638;2023-06-22T15:03:00;21.70;99.90
51567;DHT22;37657;53.182;5.638;2023-06-22T15:05:26;21.60;99.90
51567;DHT22;37657;53.182;5.638;2023-06-22T15:07:51;21.60;99.90
51567;DHT22;37657;53.182;5.638;2023-06-22T15:10:17;21.60;99.90
51567;DHT22;37657;53.182;5.638;2023-06-22T15:12:43;21.60;99.90
51567;DHT22;37657;53.182;5.638;2023-06-22T15:15:09;21.50;99.90
51567;DHT22;37657;53.182;5.638;2023-06-22T15:17:34;21.50;99.90
51567;DHT22;37657;53.182;5.638;2023-06-22T15:20:01;21.40;99.90
51567;DHT22;37657;53.182;5.638;2023-06-22T15:22:28;21.50;99.90
51567;DHT22;37657;53.182;5.638;2023-06-22T15:24:54;21.60;99.90
51567;DHT22;37657;53.182;5.638;2023-06-22T15:27:19;21.70;99.90
51567;DHT22;37657;53.182;5.638;2023-06-22T15:29:45;21.50;99.90
51567;DHT22;37657;53.182;5.638;2023-06-22T15:32:11;21.50;99.90